sensor_id;sensor_type;location;lat;lon;timestamp;P1;durP1;ratioP1;P2;durP2;ratioP2
38405;SDS011;24186;50.824;4.314;2022-07-17T00:01:05;1.90;;;1.35;;
38405;SDS011;24186;50.824;4.314;2022-07-17T00:03:30;3.58;;;1.23;;
38405;SDS011;24186;50.824;4.314;2022-07-17T00:05:56;1.15;;;0.88;;
38405;SDS011;24186;50.824;4.314;2022-07-17T00:08:23;1.55;;;1.10;;
38405;SDS011;24186;50.824;4.314;2022-07-17T00:10:49;1.58;;;1.23;;
38405;SDS011;24186;50.824;4.314;2022-07-17T00:13:15;1.90;;;1.13;;
38405;SDS011;24186;50.824;4.314;2022-07-17T00:15:41;3.58;;;1.20;;
38405;SDS011;24186;50.824;4.314;2022-07-17T00:18:07;3.17;;;1.20;;
38405;SDS011;24186;50.824;4.314;2022-07-17T00:20:33;2.45;;;1.17;;
38405;SDS011;24186;50.824;4.314;2022-07-17T00:22:59;1.77;;;1.38;;
38405;SDS011;24186;50.824;4.314;2022-07-17T00:25:26;1.85;;;1.20;;
38405;SDS011;24186;50.824;4.314;2022-07-17T00:27:52;1.52;;;1.08;;
38405;SDS011;24186;50.824;4.314;2022-07-17T00:30:18;1.35;;;0.90;;
38405;SDS011;24186;50.824;4.314;2022-07-17T00:32:45;1.45;;;0.75;;
38405;SDS011;24186;50.824;4.314;2022-07-17T00:35:11;3.45;;;1.27;;
38405;SDS011;24186;50.824;4.314;2022-07-17T00:37:40;2.10;;;1.10;;
38405;SDS011;24186;50.824;4.314;2022-07-17T00:40:07;2.13;;;0.82;;
38405;SDS011;24186;50.824;4.314;2022-07-17T00:42:35;1.25;;;0.88;;
38405;SDS011;24186;50.824;4.314;2022-07-17T00:45:03;2.28;;;1.23;;
38405;SDS011;24186;50.824;4.314;2022-07-17T00:47:29;1.60;;;1.10;;
38405;SDS011;24186;50.824;4.314;2022-07-17T00:49:55;1.17;;;0.90;;
38405;SDS011;24186;50.824;4.314;2022-07-17T00:52:20;1.05;;;0.98;;
38405;SDS011;24186;50.824;4.314;2022-07-17T00:54:46;1.85;;;1.10;;
38405;SDS011;24186;50.824;4.314;2022-07-17T00:57:13;2.08;;;0.90;;
38405;SDS011;24186;50.824;4.314;2022-07-17T00:59:40;1.95;;;1.10;;
38405;SDS011;24186;50.824;4.314;2022-07-17T01:02:08;1.38;;;0.90;;
38405;SDS011;24186;50.824;4.314;2022-07-17T01:04:41;2.70;;;1.30;;
38405;SDS011;24186;50.824;4.314;2022-07-17T01:07:07;1.50;;;1.08;;
38405;SDS011;24186;50.824;4.314;2022-07-17T01:09:33;1.48;;;0.85;;
38405;SDS011;24186;50.824;4.314;2022-07-17T01:11:59;4.10;;;1.50;;
38405;SDS011;24186;50.824;4.314;2022-07-17T01:14:25;1.40;;;1.00;;
38405;SDS011;24186;50.824;4.314;2022-07-17T01:16:52;1.55;;;1.35;;
38405;SDS011;24186;50.824;4.314;2022-07-17T01:19:19;1.00;;;0.90;;
38405;SDS011;24186;50.824;4.314;2022-07-17T01:21:46;1.25;;;1.15;;
38405;SDS011;24186;50.824;4.314;2022-07-17T01:24:13;3.28;;;1.23;;
38405;SDS011;24186;50.824;4.314;2022-07-17T01:26:41;1.50;;;1.10;;
38405;SDS011;24186;50.824;4.314;2022-07-17T01:29:11;2.25;;;1.00;;
38405;SDS011;24186;50.824;4.314;2022-07-17T01:31:38;0.90;;;0.80;;
38405;SDS011;24186;50.824;4.314;2022-07-17T01:34:06;1.80;;;1.10;;
38405;SDS011;24186;50.824;4.314;2022-07-17T01:36:33;2.20;;;1.17;;
38405;SDS011;24186;50.824;4.314;2022-07-17T01:38:59;1.10;;;0.88;;
38405;SDS011;24186;50.824;4.314;2022-07-17T01:41:25;2.05;;;1.02;;
38405;SDS011;24186;50.824;4.314;2022-07-17T01:43:51;3.10;;;0.98;;
38405;SDS011;24186;50.824;4.314;2022-07-17T01:46:17;3.42;;;1.35;;
38405;SDS011;24186;50.824;4.314;2022-07-17T01:48:43;2.03;;;1.00;;
38405;SDS011;24186;50.824;4.314;2022-07-17T01:51:09;3.08;;;1.23;;
38405;SDS011;24186;50.824;4.314;2022-07-17T01:53:34;1.50;;;0.98;;
38405;SDS011;24186;50.824;4.314;2022-07-17T01:56:00;1.23;;;0.90;;
38405;SDS011;24186;50.824;4.314;2022-07-17T01:58:26;1.08;;;0.95;;
38405;SDS011;24186;50.824;4.314;2022-07-17T02:00:52;1.33;;;1.08;;
38405;SDS011;24186;50.824;4.314;2022-07-17T02:03:18;1.00;;;0.88;;
38405;SDS011;24186;50.824;4.314;2022-07-17T02:05:44;1.52;;;1.00;;
38405;SDS011;24186;50.824;4.314;2022-07-17T02:08:11;2.88;;;0.90;;
38405;SDS011;24186;50.824;4.314;2022-07-17T02:10:36;2.40;;;1.27;;
38405;SDS011;24186;50.824;4.314;2022-07-17T02:13:02;1.73;;;0.85;;
38405;SDS011;24186;50.824;4.314;2022-07-17T02:15:28;1.45;;;1.00;;
38405;SDS011;24186;50.824;4.314;2022-07-17T02:17:54;1.75;;;1.10;;
38405;SDS011;24186;50.824;4.314;2022-07-17T02:20:20;1.27;;;1.02;;
38405;SDS011;24186;50.824;4.314;2022-07-17T02:22:46;2.00;;;1.20;;
38405;SDS011;24186;50.824;4.314;2022-07-17T02:25:11;1.55;;;1.20;;
38405;SDS011;24186;50.824;4.314;2022-07-17T02:27:39;1.58;;;0.90;;
38405;SDS011;24186;50.824;4.314;2022-07-17T02:30:06;2.58;;;1.02;;
38405;SDS011;24186;50.824;4.314;2022-07-17T02:32:34;1.33;;;0.90;;
38405;SDS011;24186;50.824;4.314;2022-07-17T02:35:00;2.85;;;1.40;;
38405;SDS011;24186;50.824;4.314;2022-07-17T02:37:25;1.95;;;0.82;;
38405;SDS011;24186;50.824;4.314;2022-07-17T02:39:51;1.98;;;1.13;;
38405;SDS011;24186;50.824;4.314;2022-07-17T02:42:24;2.95;;;1.10;;
38405;SDS011;24186;50.824;4.314;2022-07-17T02:44:51;2.15;;;1.00;;
38405;SDS011;24186;50.824;4.314;2022-07-17T02:47:24;1.02;;;0.90;;
38405;SDS011;24186;50.824;4.314;2022-07-17T02:50:00;1.67;;;1.10;;
38405;SDS011;24186;50.824;4.314;2022-07-17T02:52:28;1.13;;;0.80;;
38405;SDS011;24186;50.824;4.314;2022-07-17T02:54:54;0.95;;;0.88;;
38405;SDS011;24186;50.824;4.314;2022-07-17T02:57:20;3.00;;;1.10;;
38405;SDS011;24186;50.824;4.314;2022-07-17T02:59:45;2.22;;;1.40;;
38405;SDS011;24186;50.824;4.314;2022-07-17T03:02:11;1.85;;;0.98;;
38405;SDS011;24186;50.824;4.314;2022-07-17T03:04:37;2.17;;;1.00;;
38405;SDS011;24186;50.824;4.314;2022-07-17T03:07:03;4.05;;;1.10;;
38405;SDS011;24186;50.824;4.314;2022-07-17T03:09:29;2.47;;;1.00;;
38405;SDS011;24186;50.824;4.314;2022-07-17T03:11:54;2.42;;;1.10;;
38405;SDS011;24186;50.824;4.314;2022-07-17T03:14:20;1.35;;;1.00;;
38405;SDS011;24186;50.824;4.314;2022-07-17T03:16:46;2.10;;;1.00;;
38405;SDS011;24186;50.824;4.314;2022-07-17T03:19:12;2.60;;;1.17;;
38405;SDS011;24186;50.824;4.314;2022-07-17T03:21:37;1.80;;;1.10;;
38405;SDS011;24186;50.824;4.314;2022-07-17T03:24:03;1.80;;;0.90;;
38405;SDS011;24186;50.824;4.314;2022-07-17T03:26:29;1.77;;;1.02;;
38405;SDS011;24186;50.824;4.314;2022-07-17T03:28:55;1.65;;;0.90;;
38405;SDS011;24186;50.824;4.314;2022-07-17T03:31:20;1.75;;;0.93;;
38405;SDS011;24186;50.824;4.314;2022-07-17T03:33:46;1.25;;;1.00;;
38405;SDS011;24186;50.824;4.314;2022-07-17T03:36:14;3.10;;;1.15;;
38405;SDS011;24186;50.824;4.314;2022-07-17T03:38:40;1.63;;;0.80;;
38405;SDS011;24186;50.824;4.314;2022-07-17T03:41:05;1.35;;;0.90;;
38405;SDS011;24186;50.824;4.314;2022-07-17T03:43:31;1.77;;;1.05;;
38405;SDS011;24186;50.824;4.314;2022-07-17T03:45:57;1.13;;;0.90;;
38405;SDS011;24186;50.824;4.314;2022-07-17T03:48:23;1.15;;;0.70;;
38405;SDS011;24186;50.824;4.314;2022-07-17T03:50:48;1.70;;;0.95;;
38405;SDS011;24186;50.824;4.314;2022-07-17T03:53:14;1.10;;;0.95;;
38405;SDS011;24186;50.824;4.314;2022-07-17T03:55:40;1.00;;;0.88;;
38405;SDS011;24186;50.824;4.314;2022-07-17T03:58:05;1.33;;;1.20;;
38405;SDS011;24186;50.824;4.314;2022-07-17T04:00:31;1.42;;;0.82;;
38405;SDS011;24186;50.824;4.314;2022-07-17T04:02:57;1.10;;;1.00;;
38405;SDS011;24186;50.824;4.314;2022-07-17T04:05:23;1.45;;;1.08;;
38405;SDS011;24186;50.824;4.314;2022-07-17T04:07:49;2.50;;;1.27;;
38405;SDS011;24186;50.824;4.314;2022-07-17T04:10:15;1.98;;;1.10;;
38405;SDS011;24186;50.824;4.314;2022-07-17T04:12:41;2.25;;;1.30;;
38405;SDS011;24186;50.824;4.314;2022-07-17T04:15:07;1.27;;;1.13;;
38405;SDS011;24186;50.824;4.314;2022-07-17T04:17:34;1.42;;;1.10;;
38405;SDS011;24186;50.824;4.314;2022-07-17T04:20:00;1.92;;;1.17;;
38405;SDS011;24186;50.824;4.314;2022-07-17T04:22:27;2.88;;;1.08;;
38405;SDS011;24186;50.824;4.314;2022-07-17T04:24:53;1.50;;;1.00;;
38405;SDS011;24186;50.824;4.314;2022-07-17T04:27:19;1.45;;;1.08;;
38405;SDS011;24186;50.824;4.314;2022-07-17T04:29:44;4.35;;;1.40;;
38405;SDS011;24186;50.824;4.314;2022-07-17T04:32:10;2.42;;;1.17;;
38405;SDS011;24186;50.824;4.314;2022-07-17T04:34:36;1.02;;;0.70;;
38405;SDS011;24186;50.824;4.314;2022-07-17T04:37:02;1.05;;;0.85;;
38405;SDS011;24186;50.824;4.314;2022-07-17T04:39:29;1.88;;;1.00;;
38405;SDS011;24186;50.824;4.314;2022-07-17T04:41:55;2.20;;;1.20;;
38405;SDS011;24186;50.824;4.314;2022-07-17T04:44:21;1.15;;;0.88;;
38405;SDS011;24186;50.824;4.314;2022-07-17T04:46:47;1.27;;;0.90;;
38405;SDS011;24186;50.824;4.314;2022-07-17T04:49:12;3.53;;;1.17;;
38405;SDS011;24186;50.824;4.314;2022-07-17T04:51:38;1.45;;;0.80;;
38405;SDS011;24186;50.824;4.314;2022-07-17T04:54:04;1.27;;;0.85;;
38405;SDS011;24186;50.824;4.314;2022-07-17T04:56:30;1.38;;;0.82;;
38405;SDS011;24186;50.824;4.314;2022-07-17T04:58:55;1.63;;;0.90;;
38405;SDS011;24186;50.824;4.314;2022-07-17T05:01:21;2.35;;;1.08;;
38405;SDS011;24186;50.824;4.314;2022-07-17T05:03:47;1.40;;;0.95;;
38405;SDS011;24186;50.824;4.314;2022-07-17T05:06:13;1.38;;;0.88;;
38405;SDS011;24186;50.824;4.314;2022-07-17T05:08:39;0.90;;;0.82;;
38405;SDS011;24186;50.824;4.314;2022-07-17T05:11:05;1.38;;;0.90;;
38405;SDS011;24186;50.824;4.314;2022-07-17T05:13:30;1.20;;;0.80;;
38405;SDS011;24186;50.824;4.314;2022-07-17T05:15:56;2.55;;;1.15;;
38405;SDS011;24186;50.824;4.314;2022-07-17T05:18:22;0.82;;;0.73;;
38405;SDS011;24186;50.824;4.314;2022-07-17T05:20:48;1.13;;;1.02;;
38405;SDS011;24186;50.824;4.314;2022-07-17T05:23:13;2.13;;;0.85;;
38405;SDS011;24186;50.824;4.314;2022-07-17T05:25:39;1.48;;;1.20;;
38405;SDS011;24186;50.824;4.314;2022-07-17T05:28:05;4.25;;;0.80;;
38405;SDS011;24186;50.824;4.314;2022-07-17T05:30:31;1.85;;;0.80;;
38405;SDS011;24186;50.824;4.314;2022-07-17T05:32:57;0.82;;;0.82;;
38405;SDS011;24186;50.824;4.314;2022-07-17T05:35:23;1.02;;;0.90;;
38405;SDS011;24186;50.824;4.314;2022-07-17T05:37:48;1.13;;;0.80;;
38405;SDS011;24186;50.824;4.314;2022-07-17T05:40:14;1.42;;;0.90;;
38405;SDS011;24186;50.824;4.314;2022-07-17T05:42:40;1.25;;;0.80;;
38405;SDS011;24186;50.824;4.314;2022-07-17T05:45:06;2.85;;;0.70;;
38405;SDS011;24186;50.824;4.314;2022-07-17T05:47:32;1.45;;;0.82;;
38405;SDS011;24186;50.824;4.314;2022-07-17T05:49:58;1.63;;;1.15;;
38405;SDS011;24186;50.824;4.314;2022-07-17T05:52:23;0.70;;;0.63;;
38405;SDS011;24186;50.824;4.314;2022-07-17T05:54:49;0.77;;;0.73;;
38405;SDS011;24186;50.824;4.314;2022-07-17T05:57:15;2.45;;;1.00;;
38405;SDS011;24186;50.824;4.314;2022-07-17T05:59:41;0.40;;;0.40;;
38405;SDS011;24186;50.824;4.314;2022-07-17T06:02:07;1.05;;;0.80;;
38405;SDS011;24186;50.824;4.314;2022-07-17T06:04:32;0.80;;;0.75;;
38405;SDS011;24186;50.824;4.314;2022-07-17T06:06:58;1.33;;;0.70;;
38405;SDS011;24186;50.824;4.314;2022-07-17T06:09:24;0.82;;;0.80;;
38405;SDS011;24186;50.824;4.314;2022-07-17T06:11:50;1.08;;;0.93;;
38405;SDS011;24186;50.824;4.314;2022-07-17T06:14:16;0.95;;;0.68;;
38405;SDS011;24186;50.824;4.314;2022-07-17T06:16:42;1.40;;;0.90;;
38405;SDS011;24186;50.824;4.314;2022-07-17T06:19:08;1.10;;;0.80;;
38405;SDS011;24186;50.824;4.314;2022-07-17T06:21:34;0.98;;;0.85;;
38405;SDS011;24186;50.824;4.314;2022-07-17T06:23:59;1.15;;;0.98;;
38405;SDS011;24186;50.824;4.314;2022-07-17T06:26:25;2.95;;;1.00;;
38405;SDS011;24186;50.824;4.314;2022-07-17T06:28:51;1.60;;;0.70;;
38405;SDS011;24186;50.824;4.314;2022-07-17T06:31:17;1.33;;;0.85;;
38405;SDS011;24186;50.824;4.314;2022-07-17T06:33:43;0.68;;;0.60;;
38405;SDS011;24186;50.824;4.314;2022-07-17T06:36:09;1.05;;;0.70;;
38405;SDS011;24186;50.824;4.314;2022-07-17T06:38:34;0.93;;;0.60;;
38405;SDS011;24186;50.824;4.314;2022-07-17T06:41:01;2.22;;;0.65;;
38405;SDS011;24186;50.824;4.314;2022-07-17T06:43:27;1.20;;;0.88;;
38405;SDS011;24186;50.824;4.314;2022-07-17T06:45:53;0.65;;;0.50;;
38405;SDS011;24186;50.824;4.314;2022-07-17T06:48:22;2.38;;;0.88;;
38405;SDS011;24186;50.824;4.314;2022-07-17T06:50:48;1.02;;;0.70;;
38405;SDS011;24186;50.824;4.314;2022-07-17T06:53:14;1.45;;;0.70;;
38405;SDS011;24186;50.824;4.314;2022-07-17T06:55:40;1.30;;;0.70;;
38405;SDS011;24186;50.824;4.314;2022-07-17T06:58:06;0.75;;;0.43;;
38405;SDS011;24186;50.824;4.314;2022-07-17T07:00:32;0.90;;;0.65;;
38405;SDS011;24186;50.824;4.314;2022-07-17T07:02:58;1.20;;;0.57;;
38405;SDS011;24186;50.824;4.314;2022-07-17T07:05:24;0.88;;;0.65;;
38405;SDS011;24186;50.824;4.314;2022-07-17T07:07:50;1.42;;;0.80;;
38405;SDS011;24186;50.824;4.314;2022-07-17T07:10:16;1.85;;;0.63;;
38405;SDS011;24186;50.824;4.314;2022-07-17T07:12:41;0.95;;;0.70;;
38405;SDS011;24186;50.824;4.314;2022-07-17T07:15:07;1.13;;;0.98;;
38405;SDS011;24186;50.824;4.314;2022-07-17T07:17:34;1.17;;;0.63;;
38405;SDS011;24186;50.824;4.314;2022-07-17T07:20:03;0.85;;;0.50;;
38405;SDS011;24186;50.824;4.314;2022-07-17T07:22:30;1.83;;;0.57;;
38405;SDS011;24186;50.824;4.314;2022-07-17T07:24:56;1.65;;;1.00;;
38405;SDS011;24186;50.824;4.314;2022-07-17T07:27:22;1.38;;;0.90;;
38405;SDS011;24186;50.824;4.314;2022-07-17T07:29:47;0.68;;;0.65;;
38405;SDS011;24186;50.824;4.314;2022-07-17T07:32:13;0.93;;;0.60;;
38405;SDS011;24186;50.824;4.314;2022-07-17T07:34:39;0.60;;;0.60;;
38405;SDS011;24186;50.824;4.314;2022-07-17T07:37:05;2.47;;;0.73;;
38405;SDS011;24186;50.824;4.314;2022-07-17T07:39:31;1.10;;;0.52;;
38405;SDS011;24186;50.824;4.314;2022-07-17T07:41:56;0.73;;;0.60;;
38405;SDS011;24186;50.824;4.314;2022-07-17T07:44:22;0.75;;;0.50;;
38405;SDS011;24186;50.824;4.314;2022-07-17T07:46:48;0.77;;;0.70;;
38405;SDS011;24186;50.824;4.314;2022-07-17T07:49:14;0.80;;;0.65;;
38405;SDS011;24186;50.824;4.314;2022-07-17T07:51:40;0.65;;;0.60;;
38405;SDS011;24186;50.824;4.314;2022-07-17T07:54:06;0.90;;;0.60;;
38405;SDS011;24186;50.824;4.314;2022-07-17T07:56:32;0.75;;;0.57;;
38405;SDS011;24186;50.824;4.314;2022-07-17T07:58:58;1.95;;;0.68;;
38405;SDS011;24186;50.824;4.314;2022-07-17T08:01:24;1.55;;;0.50;;
38405;SDS011;24186;50.824;4.314;2022-07-17T08:03:50;0.70;;;0.70;;
38405;SDS011;24186;50.824;4.314;2022-07-17T08:06:16;1.05;;;0.60;;
38405;SDS011;24186;50.824;4.314;2022-07-17T08:08:42;0.50;;;0.50;;
38405;SDS011;24186;50.824;4.314;2022-07-17T08:11:07;1.45;;;0.70;;
38405;SDS011;24186;50.824;4.314;2022-07-17T08:13:33;1.02;;;0.82;;
38405;SDS011;24186;50.824;4.314;2022-07-17T08:15:59;0.60;;;0.50;;
38405;SDS011;24186;50.824;4.314;2022-07-17T08:18:25;0.70;;;0.60;;
38405;SDS011;24186;50.824;4.314;2022-07-17T08:20:51;0.98;;;0.65;;
38405;SDS011;24186;50.824;4.314;2022-07-17T08:23:18;0.60;;;0.60;;
38405;SDS011;24186;50.824;4.314;2022-07-17T08:25:44;1.63;;;0.80;;
38405;SDS011;24186;50.824;4.314;2022-07-17T08:28:11;1.13;;;0.65;;
38405;SDS011;24186;50.824;4.314;2022-07-17T08:30:37;1.35;;;0.68;;
38405;SDS011;24186;50.824;4.314;2022-07-17T08:33:03;0.65;;;0.65;;
38405;SDS011;24186;50.824;4.314;2022-07-17T08:35:30;0.35;;;0.30;;
38405;SDS011;24186;50.824;4.314;2022-07-17T08:37:56;0.80;;;0.50;;
38405;SDS011;24186;50.824;4.314;2022-07-17T08:40:26;0.97;;;0.40;;
38405;SDS011;24186;50.824;4.314;2022-07-17T08:42:57;1.33;;;0.57;;
38405;SDS011;24186;50.824;4.314;2022-07-17T08:45:24;0.50;;;0.50;;
38405;SDS011;24186;50.824;4.314;2022-07-17T08:47:51;1.23;;;0.63;;
38405;SDS011;24186;50.824;4.314;2022-07-17T08:50:20;1.70;;;0.80;;
38405;SDS011;24186;50.824;4.314;2022-07-17T08:52:51;0.70;;;0.45;;
38405;SDS011;24186;50.824;4.314;2022-07-17T08:55:17;1.80;;;0.70;;
38405;SDS011;24186;50.824;4.314;2022-07-17T08:57:43;0.98;;;0.65;;
38405;SDS011;24186;50.824;4.314;2022-07-17T09:00:11;2.58;;;0.80;;
38405;SDS011;24186;50.824;4.314;2022-07-17T09:02:59;2.08;;;0.70;;
38405;SDS011;24186;50.824;4.314;2022-07-17T09:05:31;4.93;;;0.70;;
38405;SDS011;24186;50.824;4.314;2022-07-17T09:07:58;2.63;;;0.80;;
38405;SDS011;24186;50.824;4.314;2022-07-17T09:10:36;1.42;;;0.70;;
38405;SDS011;24186;50.824;4.314;2022-07-17T09:16:06;3.45;;;1.17;;
38405;SDS011;24186;50.824;4.314;2022-07-17T09:18:46;2.92;;;0.70;;
38405;SDS011;24186;50.824;4.314;2022-07-17T09:21:18;4.32;;;1.17;;
38405;SDS011;24186;50.824;4.314;2022-07-17T09:23:45;1.42;;;0.80;;
38405;SDS011;24186;50.824;4.314;2022-07-17T09:26:11;1.98;;;1.30;;
38405;SDS011;24186;50.824;4.314;2022-07-17T09:28:44;2.17;;;0.80;;
38405;SDS011;24186;50.824;4.314;2022-07-17T09:31:11;2.35;;;1.00;;
38405;SDS011;24186;50.824;4.314;2022-07-17T09:33:37;1.77;;;0.93;;
38405;SDS011;24186;50.824;4.314;2022-07-17T09:36:09;7.20;;;1.27;;
38405;SDS011;24186;50.824;4.314;2022-07-17T09:38:40;4.65;;;1.30;;
38405;SDS011;24186;50.824;4.314;2022-07-17T09:41:09;2.65;;;1.30;;
38405;SDS011;24186;50.824;4.314;2022-07-17T09:46:19;2.05;;;1.08;;
38405;SDS011;24186;50.824;4.314;2022-07-17T09:48:58;3.22;;;1.65;;
38405;SDS011;24186;50.824;4.314;2022-07-17T09:51:30;4.15;;;1.52;;
38405;SDS011;24186;50.824;4.314;2022-07-17T09:53:58;1.58;;;1.30;;
38405;SDS011;24186;50.824;4.314;2022-07-17T09:56:26;7.87;;;2.30;;
38405;SDS011;24186;50.824;4.314;2022-07-17T09:58:55;10.63;;;2.63;;
38405;SDS011;24186;50.824;4.314;2022-07-17T10:01:27;4.32;;;1.60;;
38405;SDS011;24186;50.824;4.314;2022-07-17T10:03:53;5.95;;;1.65;;
38405;SDS011;24186;50.824;4.314;2022-07-17T10:06:19;4.18;;;1.20;;
38405;SDS011;24186;50.824;4.314;2022-07-17T10:08:50;2.80;;;1.60;;
38405;SDS011;24186;50.824;4.314;2022-07-17T10:11:18;3.92;;;1.50;;
38405;SDS011;24186;50.824;4.314;2022-07-17T10:13:47;2.13;;;1.30;;
38405;SDS011;24186;50.824;4.314;2022-07-17T10:16:22;7.40;;;1.98;;
38405;SDS011;24186;50.824;4.314;2022-07-17T10:18:51;8.00;;;1.70;;
38405;SDS011;24186;50.824;4.314;2022-07-17T10:21:20;3.53;;;1.30;;
38405;SDS011;24186;50.824;4.314;2022-07-17T10:29:03;3.67;;;2.03;;
38405;SDS011;24186;50.824;4.314;2022-07-17T10:31:51;1.35;;;1.02;;
38405;SDS011;24186;50.824;4.314;2022-07-17T10:34:17;3.85;;;1.48;;
38405;SDS011;24186;50.824;4.314;2022-07-17T10:36:43;3.65;;;1.52;;
38405;SDS011;24186;50.824;4.314;2022-07-17T10:39:19;4.07;;;1.63;;
38405;SDS011;24186;50.824;4.314;2022-07-17T10:41:55;3.67;;;2.17;;
38405;SDS011;24186;50.824;4.314;2022-07-17T10:44:26;3.75;;;1.35;;
38405;SDS011;24186;50.824;4.314;2022-07-17T10:46:53;4.53;;;1.90;;
38405;SDS011;24186;50.824;4.314;2022-07-17T10:49:20;6.25;;;1.77;;
38405;SDS011;24186;50.824;4.314;2022-07-17T10:51:46;4.35;;;1.45;;
38405;SDS011;24186;50.824;4.314;2022-07-17T10:54:12;3.20;;;1.55;;
38405;SDS011;24186;50.824;4.314;2022-07-17T10:56:39;2.78;;;1.80;;
38405;SDS011;24186;50.824;4.314;2022-07-17T10:59:09;2.85;;;1.67;;
38405;SDS011;24186;50.824;4.314;2022-07-17T11:01:35;5.70;;;1.88;;
38405;SDS011;24186;50.824;4.314;2022-07-17T11:04:02;6.32;;;2.65;;
38405;SDS011;24186;50.824;4.314;2022-07-17T11:06:37;4.25;;;2.05;;
38405;SDS011;24186;50.824;4.314;2022-07-17T11:09:04;2.05;;;1.60;;
38405;SDS011;24186;50.824;4.314;2022-07-17T11:11:38;3.42;;;2.10;;
38405;SDS011;24186;50.824;4.314;2022-07-17T11:14:46;4.05;;;1.98;;
38405;SDS011;24186;50.824;4.314;2022-07-17T11:16:56;5.13;;;2.05;;
38405;SDS011;24186;50.824;4.314;2022-07-17T11:19:25;3.47;;;2.03;;
38405;SDS011;24186;50.824;4.314;2022-07-17T11:21:52;4.25;;;2.17;;
38405;SDS011;24186;50.824;4.314;2022-07-17T11:24:18;4.88;;;1.95;;
38405;SDS011;24186;50.824;4.314;2022-07-17T11:26:44;3.50;;;1.73;;
38405;SDS011;24186;50.824;4.314;2022-07-17T11:29:14;3.13;;;1.77;;
38405;SDS011;24186;50.824;4.314;2022-07-17T11:31:40;4.55;;;2.05;;
38405;SDS011;24186;50.824;4.314;2022-07-17T11:34:07;4.25;;;2.00;;
38405;SDS011;24186;50.824;4.314;2022-07-17T11:39:13;3.70;;;2.00;;
38405;SDS011;24186;50.824;4.314;2022-07-17T11:41:41;5.40;;;2.35;;
38405;SDS011;24186;50.824;4.314;2022-07-17T11:44:10;4.45;;;2.60;;
38405;SDS011;24186;50.824;4.314;2022-07-17T11:46:37;4.75;;;2.40;;
38405;SDS011;24186;50.824;4.314;2022-07-17T11:49:05;3.38;;;1.92;;
38405;SDS011;24186;50.824;4.314;2022-07-17T11:54:11;3.85;;;2.03;;
38405;SDS011;24186;50.824;4.314;2022-07-17T11:56:39;3.83;;;2.08;;
38405;SDS011;24186;50.824;4.314;2022-07-17T11:59:07;3.17;;;2.15;;
38405;SDS011;24186;50.824;4.314;2022-07-17T12:01:41;5.35;;;1.80;;
38405;SDS011;24186;50.824;4.314;2022-07-17T12:04:08;5.00;;;2.05;;
38405;SDS011;24186;50.824;4.314;2022-07-17T12:06:36;3.88;;;2.00;;
38405;SDS011;24186;50.824;4.314;2022-07-17T12:09:02;3.42;;;2.08;;
38405;SDS011;24186;50.824;4.314;2022-07-17T12:11:29;2.97;;;2.20;;
38405;SDS011;24186;50.824;4.314;2022-07-17T12:13:54;5.03;;;2.42;;
38405;SDS011;24186;50.824;4.314;2022-07-17T12:16:32;2.88;;;1.92;;
38405;SDS011;24186;50.824;4.314;2022-07-17T12:21:46;2.38;;;1.95;;
38405;SDS011;24186;50.824;4.314;2022-07-17T12:24:23;3.40;;;1.80;;
38405;SDS011;24186;50.824;4.314;2022-07-17T12:26:54;2.95;;;2.17;;
38405;SDS011;24186;50.824;4.314;2022-07-17T12:29:30;3.50;;;2.45;;
38405;SDS011;24186;50.824;4.314;2022-07-17T12:32:09;4.07;;;1.90;;
38405;SDS011;24186;50.824;4.314;2022-07-17T12:34:38;2.15;;;1.95;;
38405;SDS011;24186;50.824;4.314;2022-07-17T12:37:15;2.50;;;2.03;;
38405;SDS011;24186;50.824;4.314;2022-07-17T12:39:43;3.53;;;1.80;;
38405;SDS011;24186;50.824;4.314;2022-07-17T12:42:09;3.85;;;2.33;;
38405;SDS011;24186;50.824;4.314;2022-07-17T12:44:35;3.65;;;2.20;;
38405;SDS011;24186;50.824;4.314;2022-07-17T12:47:02;4.50;;;1.98;;
38405;SDS011;24186;50.824;4.314;2022-07-17T12:49:28;2.90;;;2.20;;
38405;SDS011;24186;50.824;4.314;2022-07-17T12:51:54;2.47;;;1.77;;
38405;SDS011;24186;50.824;4.314;2022-07-17T12:54:20;3.42;;;2.47;;
38405;SDS011;24186;50.824;4.314;2022-07-17T12:56:46;4.13;;;2.58;;
38405;SDS011;24186;50.824;4.314;2022-07-17T12:59:12;3.05;;;2.63;;
38405;SDS011;24186;50.824;4.314;2022-07-17T13:01:38;3.25;;;2.38;;
38405;SDS011;24186;50.824;4.314;2022-07-17T13:04:04;2.70;;;2.38;;
38405;SDS011;24186;50.824;4.314;2022-07-17T13:06:30;3.75;;;2.10;;
38405;SDS011;24186;50.824;4.314;2022-07-17T13:08:57;3.13;;;1.92;;
38405;SDS011;24186;50.824;4.314;2022-07-17T13:11:26;4.40;;;2.63;;
38405;SDS011;24186;50.824;4.314;2022-07-17T13:13:53;5.85;;;2.70;;
38405;SDS011;24186;50.824;4.314;2022-07-17T13:16:19;5.07;;;2.78;;
38405;SDS011;24186;50.824;4.314;2022-07-17T13:18:46;2.72;;;2.40;;
38405;SDS011;24186;50.824;4.314;2022-07-17T13:21:12;3.30;;;2.38;;
38405;SDS011;24186;50.824;4.314;2022-07-17T13:23:38;2.78;;;2.20;;
38405;SDS011;24186;50.824;4.314;2022-07-17T13:26:04;4.25;;;2.40;;
38405;SDS011;24186;50.824;4.314;2022-07-17T13:28:30;3.25;;;2.60;;
38405;SDS011;24186;50.824;4.314;2022-07-17T13:30:56;2.92;;;2.20;;
38405;SDS011;24186;50.824;4.314;2022-07-17T13:33:22;2.60;;;2.40;;
38405;SDS011;24186;50.824;4.314;2022-07-17T13:35:49;2.03;;;1.80;;
38405;SDS011;24186;50.824;4.314;2022-07-17T13:38:15;3.22;;;2.38;;
38405;SDS011;24186;50.824;4.314;2022-07-17T13:40:41;3.15;;;2.15;;
38405;SDS011;24186;50.824;4.314;2022-07-17T13:43:07;2.45;;;1.65;;
38405;SDS011;24186;50.824;4.314;2022-07-17T13:45:33;4.57;;;2.25;;
38405;SDS011;24186;50.824;4.314;2022-07-17T13:47:59;2.80;;;2.47;;
38405;SDS011;24186;50.824;4.314;2022-07-17T13:50:26;3.00;;;2.38;;
38405;SDS011;24186;50.824;4.314;2022-07-17T13:52:52;4.65;;;2.40;;
38405;SDS011;24186;50.824;4.314;2022-07-17T13:55:18;3.47;;;2.30;;
38405;SDS011;24186;50.824;4.314;2022-07-17T13:57:44;3.10;;;2.08;;
38405;SDS011;24186;50.824;4.314;2022-07-17T14:00:10;2.55;;;2.15;;
38405;SDS011;24186;50.824;4.314;2022-07-17T14:02:37;1.98;;;1.80;;
38405;SDS011;24186;50.824;4.314;2022-07-17T14:05:04;4.38;;;2.00;;
38405;SDS011;24186;50.824;4.314;2022-07-17T14:07:30;5.50;;;2.25;;
38405;SDS011;24186;50.824;4.314;2022-07-17T14:09:56;3.92;;;2.47;;
38405;SDS011;24186;50.824;4.314;2022-07-17T14:12:22;3.35;;;2.08;;
38405;SDS011;24186;50.824;4.314;2022-07-17T14:14:47;5.30;;;2.42;;
38405;SDS011;24186;50.824;4.314;2022-07-17T14:17:13;3.03;;;2.00;;
38405;SDS011;24186;50.824;4.314;2022-07-17T14:19:39;5.20;;;2.40;;
38405;SDS011;24186;50.824;4.314;2022-07-17T14:22:05;4.95;;;2.20;;
38405;SDS011;24186;50.824;4.314;2022-07-17T14:24:31;4.05;;;2.45;;
38405;SDS011;24186;50.824;4.314;2022-07-17T14:26:57;2.78;;;2.22;;
38405;SDS011;24186;50.824;4.314;2022-07-17T14:29:22;2.35;;;1.98;;
38405;SDS011;24186;50.824;4.314;2022-07-17T14:31:49;3.47;;;1.92;;
38405;SDS011;24186;50.824;4.314;2022-07-17T14:34:15;2.60;;;1.67;;
38405;SDS011;24186;50.824;4.314;2022-07-17T14:36:42;1.70;;;1.52;;
38405;SDS011;24186;50.824;4.314;2022-07-17T14:39:07;3.63;;;2.22;;
38405;SDS011;24186;50.824;4.314;2022-07-17T14:41:33;2.45;;;1.98;;
38405;SDS011;24186;50.824;4.314;2022-07-17T14:43:59;1.58;;;1.48;;
38405;SDS011;24186;50.824;4.314;2022-07-17T14:46:25;2.50;;;1.63;;
38405;SDS011;24186;50.824;4.314;2022-07-17T14:48:51;3.25;;;1.80;;
38405;SDS011;24186;50.824;4.314;2022-07-17T14:51:16;2.00;;;1.33;;
38405;SDS011;24186;50.824;4.314;2022-07-17T14:53:42;2.38;;;1.88;;
38405;SDS011;24186;50.824;4.314;2022-07-17T14:56:08;2.28;;;1.75;;
38405;SDS011;24186;50.824;4.314;2022-07-17T14:58:33;1.83;;;1.50;;
38405;SDS011;24186;50.824;4.314;2022-07-17T15:00:59;2.10;;;1.45;;
38405;SDS011;24186;50.824;4.314;2022-07-17T15:03:25;1.58;;;1.48;;
38405;SDS011;24186;50.824;4.314;2022-07-17T15:05:51;2.22;;;1.75;;